sensor_id;sensor_type;location;lat;lon;timestamp;pressure;altitude;pressure_sealevel;temperature;humidity
73624;BME280;61921;53.226;-1.296;2022-08-20T00:00:54;100532.86;;;15.98;67.52
73624;BME280;61921;53.226;-1.296;2022-08-20T00:03:19;100534.44;;;16.01;67.33
73624;BME280;61921;53.226;-1.296;2022-08-20T00:05:45;100534.06;;;16.09;67.31
73624;BME280;61921;53.226;-1.296;2022-08-20T00:08:08;100534.89;;;16.12;67.28
73624;BME280;61921;53.226;-1.296;2022-08-20T00:10:35;100531.74;;;16.13;67.31
73624;BME280;61921;53.226;-1.296;2022-08-20T00:12:58;100535.36;;;16.05;67.72
73624;BME280;61921;53.226;-1.296;2022-08-20T00:15:26;100533.13;;;15.98;68.33
73624;BME280;61921;53.226;-1.296;2022-08-20T00:17:49;100533.04;;;15.79;69.18
73624;BME280;61921;53.226;-1.296;2022-08-20T00:20:14;100531.55;;;15.78;69.79
73624;BME280;61921;53.226;-1.296;2022-08-20T00:22:39;100528.69;;;15.92;69.22
73624;BME280;61921;53.226;-1.296;2022-08-20T00:25:07;100525.07;;;15.94;68.88
73624;BME280;61921;53.226;-1.296;2022-08-20T00:27:30;100517.80;;;15.94;68.64
73624;BME280;61921;53.226;-1.296;2022-08-20T00:29:56;100513.96;;;15.87;69.05
73624;BME280;61921;53.226;-1.296;2022-08-20T00:32:21;100514.90;;;15.87;69.27
73624;BME280;61921;53.226;-1.296;2022-08-20T00:34:46;100512.52;;;15.87;69.01
73624;BME280;61921;53.226;-1.296;2022-08-20T00:37:12;100512.74;;;15.85;68.93
73624;BME280;61921;53.226;-1.296;2022-08-20T00:39:36;100509.81;;;15.94;68.68
73624;BME280;61921;53.226;-1.296;2022-08-20T00:42:03;100507.09;;;15.82;69.47
73624;BME280;61921;53.226;-1.296;2022-08-20T00:44:27;100503.80;;;15.73;69.97
73624;BME280;61921;53.226;-1.296;2022-08-20T00:46:53;100501.88;;;15.80;69.79
73624;BME280;61921;53.226;-1.296;2022-08-20T00:49:20;100498.71;;;15.87;69.23
73624;BME280;61921;53.226;-1.296;2022-08-20T00:51:45;100496.16;;;15.92;69.12
73624;BME280;61921;53.226;-1.296;2022-08-20T00:54:13;100496.14;;;15.84;69.03
73624;BME280;61921;53.226;-1.296;2022-08-20T00:56:34;100494.98;;;15.74;69.24
73624;BME280;61921;53.226;-1.296;2022-08-20T00:58:59;100493.14;;;15.80;69.16
73624;BME280;61921;53.226;-1.296;2022-08-20T01:01:24;100491.04;;;15.80;69.08
73624;BME280;61921;53.226;-1.296;2022-08-20T01:03:50;100491.47;;;15.70;69.48
73624;BME280;61921;53.226;-1.296;2022-08-20T01:06:15;100489.48;;;15.50;70.22
73624;BME280;61921;53.226;-1.296;2022-08-20T01:08:40;100487.51;;;15.44;70.53
73624;BME280;61921;53.226;-1.296;2022-08-20T01:11:06;100487.55;;;15.41;70.45
73624;BME280;61921;53.226;-1.296;2022-08-20T01:13:31;100486.97;;;15.41;70.34
73624;BME280;61921;53.226;-1.296;2022-08-20T01:15:57;100486.92;;;15.33;70.83
73624;BME280;61921;53.226;-1.296;2022-08-20T01:18:25;100484.57;;;15.34;71.06
73624;BME280;61921;53.226;-1.296;2022-08-20T01:20:50;100484.18;;;15.25;71.64
73624;BME280;61921;53.226;-1.296;2022-08-20T01:23:20;100479.56;;;15.16;72.18
73624;BME280;61921;53.226;-1.296;2022-08-20T01:25:43;100478.62;;;15.09;72.52
73624;BME280;61921;53.226;-1.296;2022-08-20T01:28:03;100475.54;;;15.10;72.62
73624;BME280;61921;53.226;-1.296;2022-08-20T01:30:30;100472.68;;;15.02;73.10
73624;BME280;61921;53.226;-1.296;2022-08-20T01:32:54;100471.98;;;15.01;73.32
73624;BME280;61921;53.226;-1.296;2022-08-20T01:35:20;100471.89;;;15.00;73.39
73624;BME280;61921;53.226;-1.296;2022-08-20T01:37:44;100470.64;;;15.05;73.21
73624;BME280;61921;53.226;-1.296;2022-08-20T01:40:12;100471.65;;;15.02;73.22
73624;BME280;61921;53.226;-1.296;2022-08-20T01:42:37;100468.96;;;14.93;73.43
73624;BME280;61921;53.226;-1.296;2022-08-20T01:45:00;100470.05;;;14.91;73.20
73624;BME280;61921;53.226;-1.296;2022-08-20T01:47:28;100469.36;;;14.87;73.41
73624;BME280;61921;53.226;-1.296;2022-08-20T01:49:54;100468.09;;;14.81;73.86
73624;BME280;61921;53.226;-1.296;2022-08-20T01:52:23;100464.99;;;14.77;73.79
73624;BME280;61921;53.226;-1.296;2022-08-20T01:54:42;100472.06;;;14.66;73.87
73624;BME280;61921;53.226;-1.296;2022-08-20T01:57:12;100474.37;;;14.67;73.82
73624;BME280;61921;53.226;-1.296;2022-08-20T01:59:32;100469.36;;;14.66;73.76
73624;BME280;61921;53.226;-1.296;2022-08-20T02:01:58;100471.03;;;14.59;73.82
73624;BME280;61921;53.226;-1.296;2022-08-20T02:04:24;100472.43;;;14.53;73.91
73624;BME280;61921;53.226;-1.296;2022-08-20T02:06:50;100472.22;;;14.50;73.88
73624;BME280;61921;53.226;-1.296;2022-08-20T02:09:14;100467.02;;;14.49;73.79
73624;BME280;61921;53.226;-1.296;2022-08-20T02:11:39;100466.41;;;14.33;74.35
73624;BME280;61921;53.226;-1.296;2022-08-20T02:14:08;100465.60;;;14.39;74.24
73624;BME280;61921;53.226;-1.296;2022-08-20T02:16:39;100467.72;;;14.22;74.81
73624;BME280;61921;53.226;-1.296;2022-08-20T02:18:57;100463.00;;;14.32;74.55
73624;BME280;61921;53.226;-1.296;2022-08-20T02:21:21;100468.66;;;14.37;74.23
73624;BME280;61921;53.226;-1.296;2022-08-20T02:23:46;100465.39;;;14.36;74.48
73624;BME280;61921;53.226;-1.296;2022-08-20T02:26:12;100464.75;;;14.41;74.12
73624;BME280;61921;53.226;-1.296;2022-08-20T02:28:37;100463.56;;;14.38;74.10
73624;BME280;61921;53.226;-1.296;2022-08-20T02:31:03;100461.04;;;14.42;74.05
73624;BME280;61921;53.226;-1.296;2022-08-20T02:33:28;100453.20;;;14.43;73.90
73624;BME280;61921;53.226;-1.296;2022-08-20T02:35:53;100452.17;;;14.32;74.05
73624;BME280;61921;53.226;-1.296;2022-08-20T02:38:18;100453.43;;;14.27;74.17
73624;BME280;61921;53.226;-1.296;2022-08-20T02:40:45;100446.06;;;14.25;74.44
73624;BME280;61921;53.226;-1.296;2022-08-20T02:43:09;100442.44;;;14.26;74.26
73624;BME280;61921;53.226;-1.296;2022-08-20T02:45:34;100443.09;;;14.36;74.00
73624;BME280;61921;53.226;-1.296;2022-08-20T02:47:59;100447.08;;;14.36;73.51
73624;BME280;61921;53.226;-1.296;2022-08-20T02:50:26;100446.38;;;14.28;74.07
73624;BME280;61921;53.226;-1.296;2022-08-20T02:52:51;100440.94;;;14.26;74.38
73624;BME280;61921;53.226;-1.296;2022-08-20T02:55:15;100437.95;;;14.20;74.42
73624;BME280;61921;53.226;-1.296;2022-08-20T02:57:42;100436.10;;;14.08;74.89
73624;BME280;61921;53.226;-1.296;2022-08-20T03:00:12;100428.94;;;14.06;74.85
73624;BME280;61921;53.226;-1.296;2022-08-20T03:02:32;100432.32;;;13.99;75.14
73624;BME280;61921;53.226;-1.296;2022-08-20T03:04:57;100432.42;;;13.97;75.20
73624;BME280;61921;53.226;-1.296;2022-08-20T03:07:22;100438.05;;;13.94;75.10
73624;BME280;61921;53.226;-1.296;2022-08-20T03:09:48;100438.67;;;13.88;75.52
73624;BME280;61921;53.226;-1.296;2022-08-20T03:12:13;100440.59;;;13.82;75.81
73624;BME280;61921;53.226;-1.296;2022-08-20T03:14:38;100437.12;;;13.87;75.58
73624;BME280;61921;53.226;-1.296;2022-08-20T03:17:04;100438.76;;;13.89;75.47
73624;BME280;61921;53.226;-1.296;2022-08-20T03:19:29;100437.41;;;13.83;75.70
73624;BME280;61921;53.226;-1.296;2022-08-20T03:21:54;100441.39;;;13.78;75.90
73624;BME280;61921;53.226;-1.296;2022-08-20T03:24:19;100444.92;;;13.79;75.75
73624;BME280;61921;53.226;-1.296;2022-08-20T03:26:45;100441.14;;;13.72;76.05
73624;BME280;61921;53.226;-1.296;2022-08-20T03:29:11;100441.69;;;13.84;75.55
73624;BME280;61921;53.226;-1.296;2022-08-20T03:31:35;100439.57;;;13.78;75.69
73624;BME280;61921;53.226;-1.296;2022-08-20T03:34:00;100441.36;;;13.90;74.83
73624;BME280;61921;53.226;-1.296;2022-08-20T03:36:27;100437.47;;;13.90;75.14
73624;BME280;61921;53.226;-1.296;2022-08-20T03:38:51;100435.94;;;13.82;75.25
73624;BME280;61921;53.226;-1.296;2022-08-20T03:41:17;100434.00;;;13.78;75.69
73624;BME280;61921;53.226;-1.296;2022-08-20T03:43:42;100429.63;;;13.73;75.84
73624;BME280;61921;53.226;-1.296;2022-08-20T03:46:08;100430.29;;;13.65;76.41
73624;BME280;61921;53.226;-1.296;2022-08-20T03:48:33;100430.93;;;13.65;76.60
73624;BME280;61921;53.226;-1.296;2022-08-20T03:50:59;100427.78;;;13.60;76.93
73624;BME280;61921;53.226;-1.296;2022-08-20T03:53:24;100428.50;;;13.71;76.63
73624;BME280;61921;53.226;-1.296;2022-08-20T03:55:49;100431.20;;;13.63;76.74
73624;BME280;61921;53.226;-1.296;2022-08-20T03:58:15;100426.39;;;13.75;76.50
73624;BME280;61921;53.226;-1.296;2022-08-20T04:00:42;100431.07;;;13.84;76.39
73624;BME280;61921;53.226;-1.296;2022-08-20T04:03:05;100428.35;;;13.93;75.94
73624;BME280;61921;53.226;-1.296;2022-08-20T04:05:31;100425.55;;;14.13;75.40
73624;BME280;61921;53.226;-1.296;2022-08-20T04:07:56;100423.89;;;14.13;75.52
73624;BME280;61921;53.226;-1.296;2022-08-20T04:10:21;100425.61;;;14.17;75.66
73624;BME280;61921;53.226;-1.296;2022-08-20T04:12:46;100424.83;;;14.18;75.76
73624;BME280;61921;53.226;-1.296;2022-08-20T04:15:14;100422.24;;;14.25;75.57
73624;BME280;61921;53.226;-1.296;2022-08-20T04:17:39;100420.59;;;14.28;75.81
73624;BME280;61921;53.226;-1.296;2022-08-20T04:20:03;100417.92;;;14.23;76.11
73624;BME280;61921;53.226;-1.296;2022-08-20T04:22:28;100418.83;;;14.24;76.25
73624;BME280;61921;53.226;-1.296;2022-08-20T04:24:53;100420.76;;;14.40;75.85
73624;BME280;61921;53.226;-1.296;2022-08-20T04:27:18;100424.71;;;14.45;75.74
73624;BME280;61921;53.226;-1.296;2022-08-20T04:29:44;100425.05;;;14.51;75.57
73624;BME280;61921;53.226;-1.296;2022-08-20T04:32:09;100430.39;;;14.54;75.60
73624;BME280;61921;53.226;-1.296;2022-08-20T04:34:35;100426.66;;;14.63;75.37
73624;BME280;61921;53.226;-1.296;2022-08-20T04:37:00;100426.54;;;14.58;75.63
73624;BME280;61921;53.226;-1.296;2022-08-20T04:39:26;100425.01;;;14.65;75.51
73624;BME280;61921;53.226;-1.296;2022-08-20T04:41:51;100427.04;;;14.68;75.44
73624;BME280;61921;53.226;-1.296;2022-08-20T04:44:16;100426.88;;;14.61;75.68
73624;BME280;61921;53.226;-1.296;2022-08-20T04:46:42;100428.50;;;14.60;75.99
73624;BME280;61921;53.226;-1.296;2022-08-20T04:49:08;100429.38;;;14.70;75.82
73624;BME280;61921;53.226;-1.296;2022-08-20T04:51:33;100430.35;;;14.72;75.41
73624;BME280;61921;53.226;-1.296;2022-08-20T04:53:59;100436.66;;;14.75;75.61
73624;BME280;61921;53.226;-1.296;2022-08-20T04:56:26;100438.92;;;14.83;75.40
73624;BME280;61921;53.226;-1.296;2022-08-20T04:58:50;100440.56;;;14.81;75.55
73624;BME280;61921;53.226;-1.296;2022-08-20T05:01:15;100443.93;;;14.81;75.51
73624;BME280;61921;53.226;-1.296;2022-08-20T05:03:41;100440.69;;;14.83;75.63
73624;BME280;61921;53.226;-1.296;2022-08-20T05:06:08;100441.73;;;14.88;75.56
73624;BME280;61921;53.226;-1.296;2022-08-20T05:08:32;100447.08;;;14.74;75.85
73624;BME280;61921;53.226;-1.296;2022-08-20T05:10:58;100445.77;;;14.74;76.26
73624;BME280;61921;53.226;-1.296;2022-08-20T05:13:22;100454.12;;;14.87;75.83
73624;BME280;61921;53.226;-1.296;2022-08-20T05:15:48;100454.19;;;14.76;76.25
73624;BME280;61921;53.226;-1.296;2022-08-20T05:18:16;100455.30;;;14.86;76.01
73624;BME280;61921;53.226;-1.296;2022-08-20T05:20:40;100454.95;;;14.78;76.06
73624;BME280;61921;53.226;-1.296;2022-08-20T05:23:04;100453.44;;;14.87;76.17
73624;BME280;61921;53.226;-1.296;2022-08-20T05:25:29;100450.15;;;14.84;76.25
73624;BME280;61921;53.226;-1.296;2022-08-20T05:27:56;100447.65;;;14.77;76.62
73624;BME280;61921;53.226;-1.296;2022-08-20T05:30:20;100443.39;;;14.88;76.27
73624;BME280;61921;53.226;-1.296;2022-08-20T05:32:45;100444.90;;;14.69;76.64
73624;BME280;61921;53.226;-1.296;2022-08-20T05:35:11;100446.77;;;14.76;76.86
73624;BME280;61921;53.226;-1.296;2022-08-20T05:37:37;100453.60;;;14.65;76.77
73624;BME280;61921;53.226;-1.296;2022-08-20T05:40:07;100451.71;;;14.66;77.27
73624;BME280;61921;53.226;-1.296;2022-08-20T05:42:26;100455.05;;;14.63;77.27
73624;BME280;61921;53.226;-1.296;2022-08-20T05:44:52;100457.80;;;14.65;77.28
73624;BME280;61921;53.226;-1.296;2022-08-20T05:47:17;100459.25;;;14.53;77.83
73624;BME280;61921;53.226;-1.296;2022-08-20T05:49:42;100460.00;;;14.49;78.08
73624;BME280;61921;53.226;-1.296;2022-08-20T05:52:08;100455.99;;;14.49;78.26
73624;BME280;61921;53.226;-1.296;2022-08-20T05:54:33;100456.68;;;14.47;78.44
73624;BME280;61921;53.226;-1.296;2022-08-20T05:56:58;100449.60;;;14.52;77.98
73624;BME280;61921;53.226;-1.296;2022-08-20T05:59:25;100451.25;;;14.63;78.04
73624;BME280;61921;53.226;-1.296;2022-08-20T06:01:50;100459.08;;;14.72;77.87
73624;BME280;61921;53.226;-1.296;2022-08-20T06:04:14;100461.87;;;14.70;77.78
73624;BME280;61921;53.226;-1.296;2022-08-20T06:06:40;100462.88;;;14.70;77.71
73624;BME280;61921;53.226;-1.296;2022-08-20T06:09:05;100458.00;;;14.77;77.53
73624;BME280;61921;53.226;-1.296;2022-08-20T06:11:30;100456.16;;;14.74;77.66
73624;BME280;61921;53.226;-1.296;2022-08-20T06:13:56;100457.93;;;14.88;77.42
73624;BME280;61921;53.226;-1.296;2022-08-20T06:16:21;100455.16;;;14.99;77.00
73624;BME280;61921;53.226;-1.296;2022-08-20T06:18:47;100452.02;;;15.18;76.52
73624;BME280;61921;53.226;-1.296;2022-08-20T06:21:12;100450.43;;;15.17;76.29
73624;BME280;61921;53.226;-1.296;2022-08-20T06:23:38;100451.82;;;15.27;76.20
73624;BME280;61921;53.226;-1.296;2022-08-20T06:26:03;100449.95;;;15.31;75.91
73624;BME280;61921;53.226;-1.296;2022-08-20T06:28:28;100451.63;;;15.32;75.97
73624;BME280;61921;53.226;-1.296;2022-08-20T06:30:53;100455.61;;;15.40;75.92
73624;BME280;61921;53.226;-1.296;2022-08-20T06:33:19;100456.55;;;15.57;75.28
73624;BME280;61921;53.226;-1.296;2022-08-20T06:35:44;100456.09;;;15.75;75.00
73624;BME280;61921;53.226;-1.296;2022-08-20T06:38:10;100452.65;;;15.88;74.44
73624;BME280;61921;53.226;-1.296;2022-08-20T06:40:35;100447.96;;;16.05;73.49
73624;BME280;61921;53.226;-1.296;2022-08-20T06:43:00;100435.93;;;16.16;73.04
73624;BME280;61921;53.226;-1.296;2022-08-20T06:45:28;100437.40;;;16.27;73.19
73624;BME280;61921;53.226;-1.296;2022-08-20T06:47:52;100438.28;;;16.24;72.88
73624;BME280;61921;53.226;-1.296;2022-08-20T06:50:20;100435.92;;;16.17;73.09
73624;BME280;61921;53.226;-1.296;2022-08-20T06:52:41;100442.50;;;16.11;73.50
73624;BME280;61921;53.226;-1.296;2022-08-20T06:55:09;100443.52;;;16.18;73.27
73624;BME280;61921;53.226;-1.296;2022-08-20T06:57:32;100449.85;;;16.19;73.06
73624;BME280;61921;53.226;-1.296;2022-08-20T06:59:57;100453.79;;;16.29;73.02
73624;BME280;61921;53.226;-1.296;2022-08-20T07:02:23;100460.00;;;16.18;73.54
73624;BME280;61921;53.226;-1.296;2022-08-20T07:04:48;100462.16;;;16.15;73.50
73624;BME280;61921;53.226;-1.296;2022-08-20T07:07:15;100456.04;;;16.24;73.51
73624;BME280;61921;53.226;-1.296;2022-08-20T07:09:38;100453.67;;;16.26;73.63
73624;BME280;61921;53.226;-1.296;2022-08-20T07:12:04;100448.54;;;16.42;73.60
73624;BME280;61921;53.226;-1.296;2022-08-20T07:14:29;100443.82;;;16.61;72.94
73624;BME280;61921;53.226;-1.296;2022-08-20T07:16:54;100435.66;;;16.83;72.87
73624;BME280;61921;53.226;-1.296;2022-08-20T07:19:19;100431.24;;;16.94;72.59
73624;BME280;61921;53.226;-1.296;2022-08-20T07:21:46;100430.37;;;17.02;72.19
73624;BME280;61921;53.226;-1.296;2022-08-20T07:24:10;100429.26;;;17.08;72.32
73624;BME280;61921;53.226;-1.296;2022-08-20T07:26:35;100429.64;;;17.16;71.71
73624;BME280;61921;53.226;-1.296;2022-08-20T07:29:01;100430.45;;;17.16;71.68
73624;BME280;61921;53.226;-1.296;2022-08-20T07:31:26;100431.61;;;17.20;71.64
73624;BME280;61921;53.226;-1.296;2022-08-20T07:33:51;100434.76;;;17.15;71.98
73624;BME280;61921;53.226;-1.296;2022-08-20T07:36:17;100443.39;;;17.13;72.38
73624;BME280;61921;53.226;-1.296;2022-08-20T07:38:42;100449.67;;;17.10;72.71
73624;BME280;61921;53.226;-1.296;2022-08-20T07:41:10;100454.05;;;17.20;72.80
73624;BME280;61921;53.226;-1.296;2022-08-20T07:43:33;100461.34;;;17.39;72.03
73624;BME280;61921;53.226;-1.296;2022-08-20T07:45:59;100456.99;;;17.47;71.91
73624;BME280;61921;53.226;-1.296;2022-08-20T07:48:24;100461.75;;;17.73;70.56
73624;BME280;61921;53.226;-1.296;2022-08-20T07:50:48;100462.15;;;17.81;70.04
73624;BME280;61921;53.226;-1.296;2022-08-20T07:53:14;100463.61;;;18.00;70.25
73624;BME280;61921;53.226;-1.296;2022-08-20T07:55:39;100466.12;;;18.49;67.76
73624;BME280;61921;53.226;-1.296;2022-08-20T07:58:08;100453.69;;;18.64;67.15
73624;BME280;61921;53.226;-1.296;2022-08-20T08:00:30;100452.17;;;18.55;67.67
73624;BME280;61921;53.226;-1.296;2022-08-20T08:02:56;100448.95;;;18.82;67.02
73624;BME280;61921;53.226;-1.296;2022-08-20T08:05:21;100454.75;;;18.76;66.87
73624;BME280;61921;53.226;-1.296;2022-08-20T08:07:46;100452.32;;;18.89;66.56
73624;BME280;61921;53.226;-1.296;2022-08-20T08:10:15;100454.02;;;19.83;63.96
73624;BME280;61921;53.226;-1.296;2022-08-20T08:12:39;100460.15;;;19.86;63.33
73624;BME280;61921;53.226;-1.296;2022-08-20T08:15:03;100459.94;;;19.79;63.19
73624;BME280;61921;53.226;-1.296;2022-08-20T08:17:27;100453.05;;;19.96;62.67
73624;BME280;61921;53.226;-1.296;2022-08-20T08:19:52;100450.93;;;20.79;60.81
73624;BME280;61921;53.226;-1.296;2022-08-20T08:22:18;100448.10;;;21.77;58.39
73624;BME280;61921;53.226;-1.296;2022-08-20T08:24:44;100450.26;;;21.85;57.38
73624;BME280;61921;53.226;-1.296;2022-08-20T08:27:09;100444.51;;;22.14;56.74
73624;BME280;61921;53.226;-1.296;2022-08-20T08:29:34;100445.57;;;21.69;57.73
73624;BME280;61921;53.226;-1.296;2022-08-20T08:32:00;100446.83;;;20.50;60.04
73624;BME280;61921;53.226;-1.296;2022-08-20T08:34:23;100441.96;;;20.38;61.33
73624;BME280;61921;53.226;-1.296;2022-08-20T08:36:48;100448.14;;;20.15;61.84
73624;BME280;61921;53.226;-1.296;2022-08-20T08:39:13;100448.54;;;19.93;62.29
73624;BME280;61921;53.226;-1.296;2022-08-20T08:41:42;100451.20;;;19.80;63.03
73624;BME280;61921;53.226;-1.296;2022-08-20T08:44:07;100445.07;;;19.92;63.43
73624;BME280;61921;53.226;-1.296;2022-08-20T08:46:31;100439.82;;;20.25;61.96
73624;BME280;61921;53.226;-1.296;2022-08-20T08:48:57;100436.46;;;20.55;61.10
73624;BME280;61921;53.226;-1.296;2022-08-20T08:51:25;100422.88;;;20.81;59.32
73624;BME280;61921;53.226;-1.296;2022-08-20T08:53:49;100428.43;;;21.31;58.73
73624;BME280;61921;53.226;-1.296;2022-08-20T08:56:11;100422.66;;;21.52;57.95
73624;BME280;61921;53.226;-1.296;2022-08-20T08:58:35;100427.42;;;21.20;58.43
73624;BME280;61921;53.226;-1.296;2022-08-20T09:01:02;100424.37;;;21.29;58.05
73624;BME280;61921;53.226;-1.296;2022-08-20T09:03:29;100423.44;;;21.12;58.69
73624;BME280;61921;53.226;-1.296;2022-08-20T09:05:53;100420.48;;;21.44;58.31
73624;BME280;61921;53.226;-1.296;2022-08-20T09:08:21;100420.33;;;21.37;57.69
73624;BME280;61921;53.226;-1.296;2022-08-20T09:10:41;100414.55;;;21.13;57.96
73624;BME280;61921;53.226;-1.296;2022-08-20T09:13:06;100421.27;;;20.94;59.08
73624;BME280;61921;53.226;-1.296;2022-08-20T09:15:31;100415.44;;;21.18;58.51
73624;BME280;61921;53.226;-1.296;2022-08-20T09:17:57;100406.89;;;21.36;57.42
73624;BME280;61921;53.226;-1.296;2022-08-20T09:20:21;100402.79;;;21.40;57.54
73624;BME280;61921;53.226;-1.296;2022-08-20T09:22:46;100401.90;;;21.43;57.18
73624;BME280;61921;53.226;-1.296;2022-08-20T09:25:12;100402.48;;;21.48;57.24
73624;BME280;61921;53.226;-1.296;2022-08-20T09:27:36;100406.37;;;20.94;58.08
73624;BME280;61921;53.226;-1.296;2022-08-20T09:30:03;100400.94;;;21.44;57.83
73624;BME280;61921;53.226;-1.296;2022-08-20T09:32:27;100396.62;;;21.82;56.13
73624;BME280;61921;53.226;-1.296;2022-08-20T09:34:54;100403.52;;;21.57;56.58
73624;BME280;61921;53.226;-1.296;2022-08-20T09:37:18;100404.69;;;21.46;56.59
73624;BME280;61921;53.226;-1.296;2022-08-20T09:39:43;100403.68;;;21.36;55.78
73624;BME280;61921;53.226;-1.296;2022-08-20T09:42:11;100409.07;;;21.10;55.91
73624;BME280;61921;53.226;-1.296;2022-08-20T09:44:34;100398.62;;;21.03;55.46
73624;BME280;61921;53.226;-1.296;2022-08-20T09:46:59;100393.76;;;21.19;56.14
73624;BME280;61921;53.226;-1.296;2022-08-20T09:49:24;100395.98;;;21.29;54.66
73624;BME280;61921;53.226;-1.296;2022-08-20T09:51:49;100392.59;;;22.11;54.10
73624;BME280;61921;53.226;-1.296;2022-08-20T09:54:14;100387.02;;;22.48;53.08
73624;BME280;61921;53.226;-1.296;2022-08-20T09:56:39;100387.57;;;22.03;53.99
73624;BME280;61921;53.226;-1.296;2022-08-20T09:59:05;100394.60;;;22.15;54.07
73624;BME280;61921;53.226;-1.296;2022-08-20T10:01:30;100398.17;;;22.06;54.19
73624;BME280;61921;53.226;-1.296;2022-08-20T10:03:56;100387.46;;;21.77;54.55
73624;BME280;61921;53.226;-1.296;2022-08-20T10:06:20;100393.46;;;22.62;53.19
73624;BME280;61921;53.226;-1.296;2022-08-20T10:08:46;100398.43;;;23.04;52.65
73624;BME280;61921;53.226;-1.296;2022-08-20T10:11:11;100391.16;;;23.11;52.25
73624;BME280;61921;53.226;-1.296;2022-08-20T10:13:36;100402.75;;;22.55;52.56
73624;BME280;61921;53.226;-1.296;2022-08-20T10:16:01;100382.90;;;22.68;53.43
73624;BME280;61921;53.226;-1.296;2022-08-20T10:18:26;100400.24;;;22.66;52.90
73624;BME280;61921;53.226;-1.296;2022-08-20T10:20:51;100394.88;;;22.77;52.05
73624;BME280;61921;53.226;-1.296;2022-08-20T10:23:16;100396.97;;;23.16;51.42
73624;BME280;61921;53.226;-1.296;2022-08-20T10:25:41;100391.99;;;22.88;50.86
73624;BME280;61921;53.226;-1.296;2022-08-20T10:28:06;100381.60;;;22.85;50.54
73624;BME280;61921;53.226;-1.296;2022-08-20T10:30:31;100383.50;;;22.64;50.71
73624;BME280;61921;53.226;-1.296;2022-08-20T10:32:56;100390.93;;;22.51;51.03
73624;BME280;61921;53.226;-1.296;2022-08-20T10:35:21;100382.83;;;22.16;51.72
73624;BME280;61921;53.226;-1.296;2022-08-20T10:37:46;100383.29;;;22.76;51.00
73624;BME280;61921;53.226;-1.296;2022-08-20T10:40:12;100381.36;;;23.27;50.61
73624;BME280;61921;53.226;-1.296;2022-08-20T10:42:36;100374.93;;;23.42;48.97
73624;BME280;61921;53.226;-1.296;2022-08-20T10:45:02;100370.37;;;23.40;49.67
73624;BME280;61921;53.226;-1.296;2022-08-20T10:47:29;100373.93;;;23.68;49.05
73624;BME280;61921;53.226;-1.296;2022-08-20T10:49:53;100373.98;;;24.33;48.44
73624;BME280;61921;53.226;-1.296;2022-08-20T10:52:17;100376.93;;;24.40;47.07
73624;BME280;61921;53.226;-1.296;2022-08-20T10:54:42;100375.99;;;24.16;47.84
73624;BME280;61921;53.226;-1.296;2022-08-20T10:57:08;100382.69;;;24.01;48.61
73624;BME280;61921;53.226;-1.296;2022-08-20T10:59:33;100376.33;;;24.50;47.55
73624;BME280;61921;53.226;-1.296;2022-08-20T11:01:56;100383.61;;;24.74;46.55
73624;BME280;61921;53.226;-1.296;2022-08-20T11:04:22;100377.82;;;24.52;47.04
73624;BME280;61921;53.226;-1.296;2022-08-20T11:06:47;100379.52;;;24.24;46.68
73624;BME280;61921;53.226;-1.296;2022-08-20T11:09:12;100383.44;;;23.34;47.69
73624;BME280;61921;53.226;-1.296;2022-08-20T11:11:37;100383.73;;;22.92;47.95
73624;BME280;61921;53.226;-1.296;2022-08-20T11:14:02;100380.64;;;22.85;48.63
73624;BME280;61921;53.226;-1.296;2022-08-20T11:16:28;100378.36;;;23.29;47.66
73624;BME280;61921;53.226;-1.296;2022-08-20T11:18:53;100379.64;;;23.23;47.07
73624;BME280;61921;53.226;-1.296;2022-08-20T11:21:18;100378.50;;;23.65;47.16
73624;BME280;61921;53.226;-1.296;2022-08-20T11:23:43;100383.26;;;23.66;47.66
73624;BME280;61921;53.226;-1.296;2022-08-20T11:26:08;100382.19;;;22.98;48.10
73624;BME280;61921;53.226;-1.296;2022-08-20T11:28:33;100382.69;;;23.21;48.63
73624;BME280;61921;53.226;-1.296;2022-08-20T11:30:59;100381.96;;;23.97;47.70
73624;BME280;61921;53.226;-1.296;2022-08-20T11:33:23;100386.19;;;24.06;45.54
73624;BME280;61921;53.226;-1.296;2022-08-20T11:35:48;100383.07;;;23.76;44.75
73624;BME280;61921;53.226;-1.296;2022-08-20T11:38:13;100387.02;;;23.57;45.87
73624;BME280;61921;53.226;-1.296;2022-08-20T11:40:38;100384.03;;;22.91;47.20
73624;BME280;61921;53.226;-1.296;2022-08-20T11:43:03;100384.46;;;22.70;48.15
73624;BME280;61921;53.226;-1.296;2022-08-20T11:45:29;100389.55;;;23.48;46.97
73624;BME280;61921;53.226;-1.296;2022-08-20T11:47:54;100383.78;;;24.00;45.86
73624;BME280;61921;53.226;-1.296;2022-08-20T11:50:20;100391.29;;;24.30;44.40
73624;BME280;61921;53.226;-1.296;2022-08-20T11:52:44;100387.49;;;24.10;44.82
73624;BME280;61921;53.226;-1.296;2022-08-20T11:55:11;100389.19;;;23.62;45.18
73624;BME280;61921;53.226;-1.296;2022-08-20T11:57:37;100382.17;;;23.63;45.15
73624;BME280;61921;53.226;-1.296;2022-08-20T12:00:03;100387.31;;;23.26;46.28
73624;BME280;61921;53.226;-1.296;2022-08-20T12:02:24;100381.50;;;22.91;47.51
73624;BME280;61921;53.226;-1.296;2022-08-20T12:04:50;100383.82;;;22.83;48.53
73624;BME280;61921;53.226;-1.296;2022-08-20T12:07:17;100385.96;;;22.83;48.82
73624;BME280;61921;53.226;-1.296;2022-08-20T12:09:41;100386.36;;;22.67;49.22
73624;BME280;61921;53.226;-1.296;2022-08-20T12:12:05;100379.52;;;23.25;47.76
73624;BME280;61921;53.226;-1.296;2022-08-20T12:14:29;100373.08;;;23.83;47.83
73624;BME280;61921;53.226;-1.296;2022-08-20T12:16:54;100374.44;;;23.94;46.51
73624;BME280;61921;53.226;-1.296;2022-08-20T12:19:20;100382.95;;;24.03;45.91
73624;BME280;61921;53.226;-1.296;2022-08-20T12:21:45;100373.81;;;24.50;46.17
73624;BME280;61921;53.226;-1.296;2022-08-20T12:24:11;100371.79;;;24.79;44.52
73624;BME280;61921;53.226;-1.296;2022-08-20T12:26:36;100365.33;;;25.13;44.51
73624;BME280;61921;53.226;-1.296;2022-08-20T12:29:02;100359.48;;;25.27;44.11